createdAt,value
2019-04-10T00:00:19.118Z,57.50
2019-04-10T00:04:21.075Z,57.17
2019-04-10T00:08:22.142Z,55.40
2019-04-10T00:12:23.377Z,54.87
2019-04-10T00:16:24.521Z,55.97
2019-04-10T00:20:26.721Z,52.60
2019-04-10T00:24:28.171Z,53.83
2019-04-10T00:28:29.652Z,47.73
2019-04-10T00:32:30.585Z,50.83
2019-04-10T00:36:31.488Z,46.50
2019-04-10T00:40:33.232Z,47.57
2019-04-10T00:44:35.403Z,45.00
2019-04-10T00:48:36.347Z,43.20
2019-04-10T00:52:37.199Z,43.77
2019-04-10T00:56:38.960Z,41.37
2019-04-10T01:00:39.856Z,41.47
2019-04-10T01:04:40.782Z,39.97
2019-04-10T01:08:42.738Z,41.50
2019-04-10T01:12:44.075Z,39.23
2019-04-10T01:16:45.098Z,36.20
2019-04-10T01:20:46.020Z,35.70
2019-04-10T01:24:48.016Z,37.10
2019-04-10T01:28:49.227Z,37.63
2019-04-10T01:32:50.373Z,35.00
2019-04-10T01:36:52.111Z,34.53
2019-04-10T01:40:53.303Z,32.40
2019-04-10T01:44:55.051Z,34.03
2019-04-10T01:48:57.435Z,32.90
2019-04-10T01:52:59.568Z,30.83
2019-04-10T01:57:00.622Z,32.50
2019-04-10T02:01:03.912Z,30.20
2019-04-10T02:05:06.157Z,31.37
2019-04-10T02:09:08.184Z,30.03
2019-04-10T02:13:09.428Z,30.00
2019-04-10T02:17:10.584Z,28.67
2019-04-10T02:21:11.628Z,28.20
2019-04-10T02:25:13.788Z,29.43
2019-04-10T02:29:15.574Z,29.90
2019-04-10T02:33:17.830Z,28.57
2019-04-10T02:37:19.255Z,27.70
2019-04-10T02:41:21.603Z,28.67
2019-04-10T02:45:24.033Z,28.67
2019-04-10T02:49:25.238Z,28.90
2019-04-10T02:53:27.511Z,27.80
2019-04-10T02:57:29.460Z,28.43
2019-04-10T03:01:31.560Z,27.40
2019-04-10T03:05:34.474Z,27.60
2019-04-10T03:09:49.655Z,25.37
2019-04-10T03:13:38.693Z,26.23
2019-04-10T03:17:40.095Z,25.90
2019-04-10T03:21:41.234Z,26.17
2019-04-10T03:25:42.095Z,25.33
2019-04-10T03:29:44.873Z,27.40
2019-04-10T03:33:54.156Z,26.13
2019-04-10T03:37:53.556Z,26.97
2019-04-10T03:41:54.649Z,26.33
2019-04-10T03:45:55.711Z,25.50
2019-04-10T03:49:56.592Z,25.43
2019-04-10T03:53:58.417Z,25.17
2019-04-10T03:57:59.412Z,25.97
2019-04-10T04:02:00.311Z,25.23
2019-04-10T04:06:01.624Z,25.33
2019-04-10T04:10:05.182Z,24.67
2019-04-10T04:14:06.248Z,24.73
2019-04-10T04:18:07.251Z,26.17
2019-04-10T04:22:08.332Z,26.63
2019-04-10T04:26:09.252Z,25.23
2019-04-10T04:30:10.573Z,25.87
2019-04-10T04:34:12.257Z,26.27
2019-04-10T04:38:13.454Z,26.83
2019-04-10T04:42:14.903Z,26.73
2019-04-10T04:46:16.199Z,26.50
2019-04-10T04:50:17.819Z,26.37
2019-04-10T04:54:19.158Z,25.73
2019-04-10T04:58:20.362Z,27.73
2019-04-10T05:02:21.968Z,26.90
2019-04-10T05:06:23.025Z,25.53
2019-04-10T05:10:25.209Z,25.87
2019-04-10T05:14:27.208Z,27.90
2019-04-10T05:18:28.218Z,29.77
2019-04-10T05:22:29.091Z,26.77
2019-04-10T05:26:30.051Z,28.47
2019-04-10T05:30:31.397Z,28.83
2019-04-10T05:34:32.421Z,26.50
2019-04-10T05:38:33.425Z,27.10
2019-04-10T05:42:35.256Z,26.97
2019-04-10T05:46:36.766Z,29.40
2019-04-10T05:50:37.884Z,28.70
2019-04-10T05:54:39.541Z,29.43
2019-04-10T05:58:40.885Z,28.47
2019-04-10T06:02:41.965Z,28.97
2019-04-10T06:06:44.007Z,29.83
2019-04-10T06:10:45.707Z,29.30
2019-04-10T06:14:46.692Z,29.57
2019-04-10T06:18:47.570Z,30.07
2019-04-10T06:22:48.449Z,27.53
2019-04-10T06:26:50.118Z,30.40
2019-04-10T06:30:52.279Z,29.43
2019-04-10T06:34:53.382Z,31.00
2019-04-10T06:38:55.103Z,31.10
2019-04-10T06:42:56.917Z,29.63
2019-04-10T06:46:59.949Z,30.17
2019-04-10T06:51:02.068Z,30.43
2019-04-10T06:55:05.032Z,29.30
2019-04-10T06:59:06.654Z,28.20
2019-04-10T07:03:08.576Z,28.17
2019-04-10T07:07:12.941Z,27.57
2019-04-10T07:11:13.489Z,24.90
2019-04-10T07:15:19.143Z,26.63
2019-04-10T07:19:17.804Z,25.30
2019-04-10T07:23:24.139Z,26.90
2019-04-10T07:27:21.849Z,26.23
2019-04-10T07:31:23.477Z,27.10
2019-04-10T07:35:25.653Z,26.10
2019-04-10T07:39:29.504Z,25.90
2019-04-10T07:43:30.656Z,26.90
2019-04-10T07:47:31.739Z,24.87
2019-04-10T07:51:32.629Z,23.93
2019-04-10T07:55:33.504Z,25.57
2019-04-10T07:59:35.260Z,25.70
2019-04-10T08:03:37.403Z,26.10
2019-04-10T08:07:39.291Z,23.57
2019-04-10T08:11:41.470Z,26.63
2019-04-10T08:15:43.371Z,24.63
2019-04-10T08:19:45.264Z,22.07
2019-04-10T08:23:46.512Z,23.47
2019-04-10T08:27:47.591Z,23.00
2019-04-10T08:31:48.596Z,23.37
2019-04-10T08:35:49.590Z,23.90
2019-04-10T08:39:51.385Z,23.97
2019-04-10T08:43:54.440Z,23.77
2019-04-10T08:47:55.570Z,24.17
2019-04-10T08:51:56.469Z,25.90
2019-04-10T08:55:58.794Z,26.20
2019-04-10T09:00:00.406Z,26.87
2019-04-10T09:04:01.606Z,23.07
2019-04-10T09:08:02.605Z,24.53
2019-04-10T09:12:03.587Z,27.07
2019-04-10T09:16:04.622Z,22.97
2019-04-10T09:20:06.651Z,24.47
2019-04-10T09:24:08.173Z,23.17
2019-04-10T09:28:10.464Z,23.60
2019-04-10T09:32:12.576Z,23.70
2019-04-10T09:36:13.549Z,23.90
2019-04-10T09:40:14.576Z,24.07
2019-04-10T09:44:15.505Z,23.30
2019-04-10T09:48:16.615Z,21.33
2019-04-10T09:52:18.679Z,20.87
2019-04-10T09:56:19.816Z,20.53
2019-04-10T10:00:21.706Z,21.27
2019-04-10T10:04:23.592Z,22.50
2019-04-10T10:08:24.865Z,19.90
2019-04-10T10:12:25.810Z,20.83
2019-04-10T10:16:27.265Z,20.63
2019-04-10T10:20:30.744Z,19.87
2019-04-10T10:24:32.878Z,20.70
2019-04-10T10:28:33.918Z,20.30
2019-04-10T10:32:35.134Z,20.40
2019-04-10T10:36:41.549Z,20.77
2019-04-10T10:40:39.440Z,21.70
2019-04-10T10:44:40.599Z,19.37
2019-04-10T10:48:42.031Z,17.87
2019-04-10T10:52:43.812Z,19.17
2019-04-10T10:56:44.955Z,18.67
2019-04-10T11:00:46.034Z,18.87
2019-04-10T11:04:47.509Z,18.77
2019-04-10T11:08:48.589Z,21.20
2019-04-10T11:12:50.721Z,18.93
2019-04-10T11:16:53.708Z,19.83
2019-04-10T11:21:00.720Z,18.87
2019-04-10T11:24:57.620Z,19.33
2019-04-10T11:28:58.676Z,17.47
2019-04-10T11:33:00.062Z,19.63
2019-04-10T11:37:16.606Z,18.70
2019-04-10T11:41:06.366Z,19.07
2019-04-10T11:45:10.246Z,19.10
2019-04-10T11:49:14.336Z,20.03
2019-04-10T11:53:17.279Z,21.00
2019-04-10T11:57:19.814Z,22.20
2019-04-10T12:01:21.619Z,21.47
2019-04-10T12:05:25.244Z,21.20
2019-04-10T12:10:08.237Z,20.00
2019-04-10T12:13:28.317Z,21.67
2019-04-10T12:17:29.780Z,23.27
2019-04-10T12:21:31.611Z,22.47
2019-04-10T12:25:32.692Z,20.40
2019-04-10T12:29:33.617Z,20.00
2019-04-10T12:33:35.815Z,20.90
2019-04-10T12:37:37.191Z,19.27
2019-04-10T12:41:39.238Z,19.93
2019-04-10T12:45:40.732Z,18.57
2019-04-10T12:49:41.603Z,19.70
2019-04-10T12:53:43.533Z,19.43
2019-04-10T12:57:45.436Z,20.70
2019-04-10T13:01:47.028Z,21.03
2019-04-10T13:05:47.970Z,21.80
2019-04-10T13:09:48.872Z,20.27
2019-04-10T13:13:51.217Z,21.53
2019-04-10T13:17:53.160Z,21.70
2019-04-10T13:21:54.174Z,21.13
2019-04-10T13:25:59.817Z,20.87
2019-04-10T13:29:57.976Z,19.60
2019-04-10T13:33:58.861Z,19.47
2019-04-10T13:38:00.915Z,20.53
2019-04-10T13:42:03.055Z,18.70
2019-04-10T13:46:04.665Z,21.23
2019-04-10T13:50:06.601Z,19.53
2019-04-10T13:54:07.702Z,18.63
2019-04-10T13:58:08.891Z,20.00
2019-04-10T14:02:12.973Z,20.17
2019-04-10T14:06:14.269Z,20.50
2019-04-10T14:10:15.788Z,20.03
2019-04-10T14:14:16.863Z,19.37
2019-04-10T14:18:18.564Z,17.87
2019-04-10T14:22:19.773Z,19.77
2019-04-10T14:26:26.630Z,20.70
2019-04-10T14:30:33.493Z,21.30
2019-04-10T14:34:34.753Z,21.37
2019-04-10T14:38:35.934Z,21.67
2019-04-10T14:42:38.262Z,18.33
2019-04-10T14:46:40.071Z,18.60
2019-04-10T14:50:41.997Z,20.87
2019-04-10T14:54:43.939Z,18.40
2019-04-10T14:58:57.703Z,21.30
2019-04-10T15:03:00.058Z,19.63
2019-04-10T15:07:01.803Z,20.10
2019-04-10T15:11:02.951Z,17.87
2019-04-10T15:15:04.835Z,17.93
2019-04-10T15:19:05.702Z,19.40
2019-04-10T15:23:07.741Z,19.73
2019-04-10T15:27:09.242Z,17.40
2019-04-10T15:31:10.995Z,19.07
2019-04-10T15:35:12.600Z,19.00
2019-04-10T15:39:31.399Z,23.03
2019-04-10T15:43:29.773Z,18.37
2019-04-10T15:47:48.794Z,19.90
2019-04-10T15:51:49.737Z,20.03
2019-04-10T15:55:51.664Z,19.33
2019-04-10T15:59:52.811Z,18.03
2019-04-10T16:03:55.743Z,18.83
2019-04-10T16:07:57.154Z,19.97
2019-04-10T16:12:00.478Z,21.13
2019-04-10T16:16:07.207Z,20.27
2019-04-10T16:20:30.545Z,18.73
2019-04-10T16:24:31.524Z,19.80
2019-04-10T16:28:33.560Z,20.23
2019-04-10T16:32:37.006Z,20.73
2019-04-10T16:36:38.367Z,20.03
2019-04-10T16:40:40.452Z,20.93
2019-04-10T16:44:42.324Z,18.90
2019-04-10T16:48:44.375Z,17.33
2019-04-10T16:52:45.500Z,17.80
2019-04-10T16:56:48.578Z,17.03
2019-04-10T17:00:49.982Z,17.57
2019-04-10T17:04:58.818Z,16.57
2019-04-10T17:09:08.965Z,16.97
2019-04-10T17:13:12.131Z,17.80
2019-04-10T17:17:13.215Z,17.43
2019-04-10T17:21:15.175Z,18.77
2019-04-10T17:25:16.295Z,18.80
2019-04-10T17:29:17.785Z,18.07
2019-04-10T17:33:18.806Z,18.97
2019-04-10T17:37:21.278Z,18.27
2019-04-10T17:41:23.851Z,18.03
2019-04-10T17:45:26.253Z,19.53
2019-04-10T17:49:29.694Z,18.70
2019-04-10T17:53:31.529Z,19.23
2019-04-10T17:57:38.371Z,19.43
2019-04-10T18:01:36.724Z,18.13
2019-04-10T18:05:39.131Z,18.23
2019-04-10T18:09:40.962Z,18.03
2019-04-10T18:13:42.779Z,18.47
2019-04-10T18:17:44.012Z,18.43
2019-04-10T18:21:45.870Z,17.77
2019-04-10T18:25:47.026Z,19.23
2019-04-10T18:29:48.091Z,19.13
2019-04-10T18:33:49.109Z,18.65
2019-04-10T18:37:50.087Z,19.17
2019-04-10T18:41:51.962Z,17.33
2019-04-10T18:46:03.332Z,18.93
2019-04-10T18:49:56.043Z,17.70
2019-04-10T18:53:57.601Z,18.97
2019-04-10T18:58:03.264Z,20.93
2019-04-10T19:02:25.447Z,17.93
2019-04-10T19:06:32.192Z,17.43
2019-04-10T19:10:34.604Z,18.47
2019-04-10T19:14:37.118Z,19.60
2019-04-10T19:18:39.491Z,18.10
2019-04-10T19:22:40.872Z,19.13
2019-04-10T19:26:43.225Z,17.47
2019-04-10T19:30:49.134Z,17.30
2019-04-10T19:34:50.260Z,17.40
2019-04-10T19:38:51.759Z,17.60
2019-04-10T19:42:53.450Z,17.55
2019-04-10T19:46:56.331Z,17.97
2019-04-10T19:50:57.502Z,17.97
2019-04-10T19:54:59.662Z,17.73
2019-04-10T19:59:00.799Z,17.30
2019-04-10T20:03:01.940Z,18.47
2019-04-10T20:07:03.058Z,18.23
2019-04-10T20:11:04.132Z,17.70
2019-04-10T20:15:06.875Z,17.70
2019-04-10T20:19:07.764Z,19.73
2019-04-10T20:23:09.692Z,17.67
2019-04-10T20:27:11.995Z,19.83
2019-04-10T20:31:15.311Z,20.07
2019-04-10T20:35:16.349Z,18.33
2019-04-10T20:39:17.489Z,18.77
2019-04-10T20:43:18.603Z,17.73
2019-04-10T20:47:22.525Z,20.87
2019-04-10T20:51:24.860Z,19.30
2019-04-10T20:55:25.905Z,22.40
2019-04-10T20:59:26.852Z,20.13
2019-04-10T21:03:27.772Z,21.43
2019-04-10T21:07:29.837Z,21.47
2019-04-10T21:11:31.367Z,19.13
2019-04-10T21:15:33.347Z,20.43
2019-04-10T21:19:35.386Z,22.33
2019-04-10T21:23:36.460Z,20.73
2019-04-10T21:27:37.670Z,20.67
2019-04-10T21:31:59.048Z,22.47
2019-04-10T21:36:01.804Z,23.07
2019-04-10T21:40:04.039Z,21.30
2019-04-10T21:44:05.015Z,23.03
2019-04-10T21:48:08.515Z,22.27
2019-04-10T21:52:09.828Z,22.57
2019-04-10T21:56:10.779Z,20.80
2019-04-10T22:00:12.360Z,23.47
2019-04-10T22:04:14.644Z,24.43
2019-04-10T22:08:17.680Z,23.73
2019-04-10T22:12:25.900Z,24.70
2019-04-10T22:16:26.255Z,23.83
2019-04-10T22:20:27.673Z,25.60
2019-04-10T22:24:29.838Z,24.27
2019-04-10T22:28:31.005Z,24.17
2019-04-10T22:32:33.078Z,24.07
2019-04-10T22:36:35.247Z,25.73
2019-04-10T22:40:36.363Z,26.07
2019-04-10T22:44:43.384Z,26.10
2019-04-10T22:48:41.530Z,24.83
2019-04-10T22:52:42.564Z,23.27
2019-04-10T22:56:43.437Z,23.87
2019-04-10T23:00:44.449Z,27.13
2019-04-10T23:04:45.309Z,26.17
2019-04-10T23:08:46.174Z,25.63
2019-04-10T23:12:54.922Z,26.70
2019-04-10T23:16:50.510Z,27.57
2019-04-10T23:20:52.182Z,26.50
2019-04-10T23:24:54.078Z,24.67
2019-04-10T23:28:55.932Z,26.80
2019-04-10T23:32:56.902Z,27.03
2019-04-10T23:36:58.327Z,26.17
2019-04-10T23:40:59.587Z,25.50
2019-04-10T23:45:01.598Z,25.17
2019-04-10T23:49:03.911Z,26.13
2019-04-10T23:53:04.970Z,28.33
2019-04-10T23:57:05.808Z,26.80
